Time;durP1;ratioP1;P1;durP2;ratioP2;P2;SDS_P1;SDS_P2;PMS_P1;PMS_P2;Temp;Humidity;BMP_temperature;BMP_pressure;BME280_temperature;BME280_humidity;BME280_pressure;Samples;Min_cycle;Max_cycle;Signal;HPM_P1;HPM_P2
2021/04/09 00:00:21;;;;;;;19.23;13.90;;;;;;;0.52;100.00;96799.88;5032767;28;20053;-47
2021/04/09 00:02:49;;;;;;;20.02;14.02;;;;;;;0.54;100.00;96795.44;5021040;28;20072;-47
2021/04/09 00:05:20;;;;;;;18.52;14.20;;;;;;;0.55;100.00;96796.28;5022260;28;20061;-46
2021/04/09 00:07:49;;;;;;;17.58;14.15;;;;;;;0.55;100.00;96788.47;5011736;28;20061;-45
2021/04/09 00:10:18;;;;;;;19.40;13.80;;;;;;;0.57;100.00;96784.91;5030212;28;20079;-46
2021/04/09 00:12:45;;;;;;;21.33;14.43;;;;;;;0.59;100.00;96790.88;5006902;28;20069;-47
2021/04/09 00:15:13;;;;;;;19.75;14.55;;;;;;;0.61;100.00;96788.19;5013482;28;20072;-46
2021/04/09 00:17:42;;;;;;;21.67;14.15;;;;;;;0.65;100.00;96784.53;5018496;28;20495;-47
2021/04/09 00:20:13;;;;;;;21.55;14.60;;;;;;;0.47;100.00;96788.88;5030835;28;20341;-47
2021/04/09 00:22:41;;;;;;;18.73;15.00;;;;;;;0.62;100.00;96782.06;5001693;28;20079;-45
2021/04/09 00:25:10;;;;;;;20.00;14.05;;;;;;;0.66;100.00;96784.47;5032581;28;20083;-46
2021/04/09 00:27:38;;;;;;;17.30;13.52;;;;;;;0.62;100.00;96777.75;5000235;28;20100;-47
2021/04/09 00:30:07;;;;;;;16.58;13.68;;;;;;;0.63;100.00;96783.78;5038616;28;20060;-46
2021/04/09 00:32:35;;;;;;;17.98;12.93;;;;;;;0.51;100.00;96781.78;5011532;28;20065;-48
2021/04/09 00:35:04;;;;;;;17.30;12.85;;;;;;;0.50;100.00;96775.75;5011843;28;20077;-45
2021/04/09 00:37:31;;;;;;;19.27;14.10;;;;;;;0.47;100.00;96773.31;5019327;28;20447;-46
2021/04/09 00:39:59;;;;;;;22.10;14.63;;;;;;;0.42;100.00;96773.53;5029329;28;20080;-45
2021/04/09 00:42:27;;;;;;;16.98;13.55;;;;;;;0.41;100.00;96769.28;5023574;28;20072;-46
2021/04/09 00:44:56;;;;;;;17.42;13.65;;;;;;;0.45;100.00;96772.56;5029721;28;20085;-46
2021/04/09 00:47:24;;;;;;;16.95;13.82;;;;;;;0.54;100.00;96773.84;5030710;28;20123;-46
2021/04/09 00:49:52;;;;;;;18.67;14.00;;;;;;;0.53;100.00;96769.56;5036700;28;20075;-49
2021/04/09 00:52:21;;;;;;;17.85;13.02;;;;;;;0.51;100.00;96774.81;5028770;28;20440;-49
2021/04/09 00:54:49;;;;;;;16.70;13.68;;;;;;;0.56;100.00;96767.66;5010194;28;20357;-46
2021/04/09 00:57:17;;;;;;;17.63;14.00;;;;;;;0.60;100.00;96774.38;5036915;28;20072;-47
2021/04/09 00:59:45;;;;;;;16.73;12.75;;;;;;;0.64;100.00;96764.69;5003689;28;20074;-46
2021/04/09 01:02:12;;;;;;;15.35;11.55;;;;;;;0.65;100.00;96762.03;5034526;28;20070;-45
2021/04/09 01:04:41;;;;;;;18.38;13.40;;;;;;;0.41;100.00;96761.50;5016977;28;20065;-47
2021/04/09 01:07:08;;;;;;;17.60;13.23;;;;;;;0.38;100.00;96758.16;5028782;28;20069;-46
2021/04/09 01:09:37;;;;;;;18.17;13.15;;;;;;;0.35;100.00;96759.19;5011399;28;20436;-47
2021/04/09 01:12:05;;;;;;;15.25;12.00;;;;;;;0.40;100.00;96749.41;5028583;28;20072;-46
2021/04/09 01:14:34;;;;;;;16.58;13.40;;;;;;;0.37;100.00;96749.56;5018400;28;20455;-48
2021/04/09 01:17:06;;;;;;;20.80;13.88;;;;;;;0.36;100.00;96750.47;5043550;28;20197;-46
2021/04/09 01:20:03;;;;;;;19.20;14.57;;;;;;;0.33;100.00;96742.00;5011779;28;20100;-49
2021/04/09 01:22:34;;;;;;;21.05;14.45;;;;;;;0.29;100.00;96743.09;5018106;28;20057;-51
2021/04/09 01:25:07;;;;;;;;;;;;;;;0.27;100.00;96744.91;5013052;28;20068;-47
2021/04/09 01:28:11;;;;;;;23.70;15.40;;;;;;;0.18;100.00;96744.44;5007771;28;19967;-51
2021/04/09 01:30:52;;;;;;;19.25;13.88;;;;;;;0.11;100.00;96739.63;4992791;28;20076;-49
2021/04/09 01:33:23;;;;;;;17.75;13.68;;;;;;;-0.13;100.00;96742.47;5036815;28;20073;-50
2021/04/09 01:35:54;;;;;;;19.40;14.80;;;;;;;-0.25;100.00;96738.69;5015566;28;20083;-52
2021/04/09 01:38:24;;;;;;;20.33;13.45;;;;;;;-0.10;100.00;96733.72;5031706;28;20062;-47
2021/04/09 01:40:52;;;;;;;17.17;13.27;;;;;;;-0.04;100.00;96734.25;5003304;28;20069;-46
2021/04/09 01:43:20;;;;;;;17.15;13.40;;;;;;;0.02;100.00;96735.72;5036061;28;20531;-49
2021/04/09 01:45:50;;;;;;;21.85;14.00;;;;;;;-0.07;100.00;96736.13;4998494;28;20072;-49
2021/04/09 01:48:19;;;;;;;19.15;14.07;;;;;;;-0.09;100.00;96737.97;5040760;28;20076;-54
2021/04/09 01:50:47;;;;;;;21.70;14.32;;;;;;;-0.10;100.00;96731.97;4990308;28;20069;-50
2021/04/09 01:53:16;;;;;;;17.45;13.95;;;;;;;-0.08;100.00;96737.06;5035417;28;20063;-47
2021/04/09 01:55:47;;;;;;;19.30;14.13;;;;;;;-0.14;100.00;96727.81;5019202;28;20072;-48
2021/04/09 01:58:15;;;;;;;19.70;14.23;;;;;;;-0.22;100.00;96724.75;5026959;28;20068;-49
2021/04/09 02:00:43;;;;;;;19.33;13.82;;;;;;;-0.30;100.00;96729.47;5019200;28;20081;-51
2021/04/09 02:03:11;;;;;;;17.02;13.68;;;;;;;-0.25;100.00;96722.31;5034140;28;20079;-51
2021/04/09 02:05:40;;;;;;;19.30;14.45;;;;;;;-0.28;100.00;96714.66;5004740;28;20084;-50
2021/04/09 02:08:11;;;;;;;17.15;13.45;;;;;;;-0.33;100.00;96720.06;5035102;28;20072;-48
2021/04/09 02:10:38;;;;;;;17.98;13.40;;;;;;;-0.40;100.00;96723.88;4992831;28;20075;-43
2021/04/09 02:13:07;;;;;;;18.67;14.00;;;;;;;-0.77;100.00;96720.34;5023693;28;20080;-45
2021/04/09 02:15:35;;;;;;;18.95;13.93;;;;;;;-0.65;100.00;96724.16;5037407;28;20080;-46
2021/04/09 02:18:02;;;;;;;17.90;13.05;;;;;;;-0.50;100.00;96722.59;5000990;28;20527;-44
2021/04/09 02:20:30;;;;;;;16.10;12.18;;;;;;;-0.43;100.00;96724.00;5033486;28;20393;-46
2021/04/09 02:22:58;;;;;;;15.40;12.63;;;;;;;-0.43;100.00;96718.00;5022279;28;20068;-45
2021/04/09 02:25:27;;;;;;;17.10;13.27;;;;;;;-0.51;100.00;96714.00;5027362;28;20496;-45
2021/04/09 02:27:54;;;;;;;19.90;14.25;;;;;;;-0.56;100.00;96705.59;5011639;28;20096;-47
2021/04/09 02:30:24;;;;;;;20.60;14.98;;;;;;;-0.56;100.00;96709.94;5030713;28;20073;-50
2021/04/09 02:32:52;;;;;;;15.75;12.77;;;;;;;-0.60;100.00;96705.81;5006492;28;20436;-46
2021/04/09 02:35:20;;;;;;;19.20;12.98;;;;;;;-0.53;100.00;96705.44;5039772;28;20080;-46
2021/04/09 02:37:49;;;;;;;15.18;13.25;;;;;;;-0.52;100.00;96701.09;5006604;28;20064;-46
2021/04/09 02:40:19;;;;;;;16.13;13.50;;;;;;;-0.63;100.00;96700.78;5030524;28;20506;-47
2021/04/09 02:42:50;;;;;;;20.42;14.43;;;;;;;-0.64;100.00;96693.91;5014327;28;20072;-47
2021/04/09 02:45:21;;;;;;;17.40;13.30;;;;;;;-0.70;100.00;96697.63;5023477;28;20061;-45
2021/04/09 02:47:49;;;;;;;16.05;13.02;;;;;;;-0.70;100.00;96696.78;5007851;28;20081;-47
2021/04/09 02:50:22;;;;;;;16.55;13.35;;;;;;;-0.78;100.00;96692.78;5032498;28;20433;-46
2021/04/09 02:52:52;;;;;;;17.63;13.30;;;;;;;-0.75;100.00;96691.81;5003215;28;20061;-45
2021/04/09 02:55:23;;;;;;;17.23;13.18;;;;;;;-0.80;100.00;96691.19;5023678;28;20053;-45
2021/04/09 02:57:52;;;;;;;18.35;13.95;;;;;;;-0.84;100.00;96689.63;5007305;28;20452;-48
2021/04/09 03:00:20;;;;;;;18.00;14.40;;;;;;;-0.84;100.00;96692.22;5022064;28;20065;-46
2021/04/09 03:02:49;;;;;;;15.38;12.90;;;;;;;-0.80;100.00;96688.59;5017045;28;20071;-46
2021/04/09 03:05:18;;;;;;;18.02;13.50;;;;;;;-0.77;100.00;96683.28;5037381;28;20080;-47
2021/04/09 03:07:46;;;;;;;16.13;13.52;;;;;;;-0.83;100.00;96683.53;5025707;28;20075;-44
2021/04/09 03:10:17;;;;;;;17.20;13.35;;;;;;;-0.78;100.00;96682.44;5012617;28;20075;-46
2021/04/09 03:12:45;;;;;;;19.73;13.63;;;;;;;-0.88;100.00;96681.19;5027378;28;20060;-46
2021/04/09 03:15:18;;;;;;;18.88;14.25;;;;;;;-0.99;100.00;96676.47;5003990;28;20451;-49
2021/04/09 03:17:53;;;;;;;18.42;14.18;;;;;;;-1.14;100.00;96676.31;5038860;28;20080;-46
2021/04/09 03:20:21;;;;;;;18.25;13.32;;;;;;;-1.06;100.00;96674.25;5006737;28;20443;-48
2021/04/09 03:22:48;;;;;;;18.50;13.32;;;;;;;-1.01;100.00;96672.28;5026006;28;20077;-48
2021/04/09 03:25:16;;;;;;;19.90;13.77;;;;;;;-1.22;100.00;96674.91;5013383;28;20072;-46
2021/04/09 03:27:44;;;;;;;18.25;13.43;;;;;;;-1.17;100.00;96664.38;5018225;28;20457;-47
2021/04/09 03:30:13;;;;;;;17.73;14.90;;;;;;;-1.15;100.00;96664.28;5010494;28;20053;-46
2021/04/09 03:32:41;;;;;;;18.48;13.80;;;;;;;-1.26;100.00;96668.19;5027441;28;20675;-45
2021/04/09 03:35:09;;;;;;;20.10;15.30;;;;;;;-1.24;100.00;96674.16;4984040;28;20069;-47
2021/04/09 03:37:37;;;;;;;22.00;15.60;;;;;;;-1.32;100.00;96676.22;5037335;28;20076;-47
2021/04/09 03:40:06;;;;;;;21.83;16.58;;;;;;;-1.23;100.00;96675.81;5007303;28;20068;-46
2021/04/09 03:42:33;;;;;;;21.02;15.32;;;;;;;-1.25;100.00;96674.19;5033647;28;20083;-46
2021/04/09 03:45:01;;;;;;;20.80;16.08;;;;;;;-1.14;100.00;96674.56;5009006;28;20503;-44
2021/04/09 03:47:28;;;;;;;20.75;15.27;;;;;;;-1.20;100.00;96670.53;5027374;28;20658;-48
2021/04/09 03:49:56;;;;;;;21.45;14.75;;;;;;;-1.29;100.00;96670.91;4983152;28;20064;-43
2021/04/09 03:52:24;;;;;;;20.02;14.30;;;;;;;-1.24;100.00;96675.88;5025881;28;20062;-44
2021/04/09 03:54:51;;;;;;;21.02;14.80;;;;;;;-1.25;100.00;96672.44;5004612;28;20071;-48
2021/04/09 03:57:20;;;;;;;20.38;15.63;;;;;;;-1.20;100.00;96664.50;5017064;28;20061;-53
2021/04/09 03:59:47;;;;;;;23.25;16.25;;;;;;;-1.18;100.00;96662.69;5018433;28;20079;-47
2021/04/09 04:02:15;;;;;;;20.52;15.50;;;;;;;-1.30;100.00;96665.81;4987412;28;20056;-46
2021/04/09 04:04:42;;;;;;;23.17;14.27;;;;;;;-1.41;100.00;96666.28;5028171;28;20106;-47
2021/04/09 04:07:11;;;;;;;18.80;14.98;;;;;;;-1.28;100.00;96661.41;5000411;28;20069;-47
2021/04/09 04:09:38;;;;;;;23.02;16.13;;;;;;;-1.27;100.00;96655.34;5016435;28;20473;-49
2021/04/09 04:12:07;;;;;;;20.70;16.00;;;;;;;-1.43;100.00;96660.34;5012767;28;20061;-45
2021/04/09 04:14:35;;;;;;;21.58;15.95;;;;;;;-1.42;100.00;96656.81;5024590;28;20459;-44
2021/04/09 04:17:28;;;;;;;24.15;16.17;;;;;;;-1.31;100.00;96661.53;5003859;28;20029;-46
2021/04/09 04:19:55;;;;;;;24.63;15.88;;;;;;;-1.42;100.00;96656.81;5022933;28;20075;-46
2021/04/09 04:22:24;;;;;;;24.17;16.17;;;;;;;-1.30;100.00;96665.81;4989253;28;20045;-46
2021/04/09 04:24:51;;;;;;;23.13;15.90;;;;;;;-1.44;100.00;96663.84;5021715;28;20081;-47
2021/04/09 04:27:20;;;;;;;22.38;16.10;;;;;;;-1.49;100.00;96666.59;5016331;28;20067;-46
2021/04/09 04:29:47;;;;;;;22.92;16.13;;;;;;;-1.62;100.00;96667.19;5023685;28;20087;-47
2021/04/09 04:32:15;;;;;;;25.33;16.85;;;;;;;-1.47;100.00;96661.38;5018394;28;20073;-49
2021/04/09 04:34:42;;;;;;;23.55;16.70;;;;;;;-1.44;100.00;96661.25;5028034;28;20064;-45
2021/04/09 04:37:10;;;;;;;21.27;14.85;;;;;;;-1.60;100.00;96660.22;4994790;28;20057;-47
2021/04/09 04:39:38;;;;;;;22.13;16.83;;;;;;;-1.40;100.00;96661.94;5027815;28;20072;-50
2021/04/09 04:42:06;;;;;;;21.00;15.15;;;;;;;-1.39;100.00;96666.22;5003961;28;20065;-48
2021/04/09 04:44:33;;;;;;;22.90;15.23;;;;;;;-1.38;100.00;96654.94;5025981;28;20531;-48
2021/04/09 04:47:02;;;;;;;21.55;16.42;;;;;;;-1.23;100.00;96659.47;5007077;28;20526;-47
2021/04/09 04:49:29;;;;;;;24.15;16.08;;;;;;;-1.30;100.00;96655.47;5023575;28;20065;-47
2021/04/09 04:51:57;;;;;;;21.42;15.85;;;;;;;-1.21;100.00;96661.06;5012729;28;20072;-45
2021/04/09 04:54:24;;;;;;;23.27;16.05;;;;;;;-1.38;100.00;96666.13;5024504;28;20470;-50
2021/04/09 04:56:52;;;;;;;22.48;16.40;;;;;;;-1.25;100.00;96663.84;5017231;28;20534;-52
2021/04/09 04:59:20;;;;;;;23.70;16.52;;;;;;;-0.98;100.00;96661.78;4999596;28;20069;-50
2021/04/09 05:01:47;;;;;;;28.63;17.23;;;;;;;-0.82;100.00;96657.59;5025681;28;20080;-47
2021/04/09 05:04:15;;;;;;;22.73;16.42;;;;;;;-0.58;100.00;96654.78;4989498;28;20073;-53
2021/04/09 05:06:42;;;;;;;26.48;15.52;;;;;;;-0.51;100.00;96658.78;5037999;28;20064;-48
2021/04/09 05:09:10;;;;;;;24.20;15.45;;;;;;;0.21;100.00;96657.88;5005112;28;20069;-47
2021/04/09 05:11:37;;;;;;;21.90;14.63;;;;;;;0.16;100.00;96652.91;5041741;28;20065;-47
2021/04/09 05:14:06;;;;;;;25.00;16.73;;;;;;;0.79;100.00;96654.06;5017354;28;20073;-51
2021/04/09 05:16:33;;;;;;;23.17;14.77;;;;;;;1.67;100.00;96648.44;5031360;28;20069;-48
2021/04/09 05:19:00;;;;;;;20.92;15.52;;;;;;;1.61;100.00;96652.19;5012616;28;20068;-52
2021/04/09 05:21:28;;;;;;;19.75;13.70;;;;;;;0.97;100.00;96660.91;5027493;28;20075;-49
2021/04/09 05:23:56;;;;;;;21.55;15.18;;;;;;;0.51;100.00;96665.84;5016697;28;20088;-49
2021/04/09 05:26:23;;;;;;;21.15;15.25;;;;;;;-0.11;100.00;96654.25;5039330;28;20589;-49
2021/04/09 05:28:51;;;;;;;17.98;13.88;;;;;;;-0.16;100.00;96669.22;5006789;28;20073;-47
2021/04/09 05:31:19;;;;;;;22.00;15.20;;;;;;;-0.11;100.00;96657.69;5034725;28;20069;-48
2021/04/09 05:33:46;;;;;;;24.25;16.10;;;;;;;0.17;100.00;96656.34;5017636;28;20456;-47
2021/04/09 05:36:14;;;;;;;21.63;15.93;;;;;;;0.19;100.00;96641.53;5023320;28;20547;-47
2021/04/09 05:38:42;;;;;;;23.42;15.93;;;;;;;0.20;100.00;96659.59;5035225;28;20552;-45
2021/04/09 05:41:09;;;;;;;21.70;16.23;;;;;;;0.51;100.00;96655.47;5028271;28;20394;-49
2021/04/09 05:43:36;;;;;;;24.98;16.08;;;;;;;0.36;100.00;96648.50;5027113;28;20065;-47
2021/04/09 05:46:04;;;;;;;21.70;16.23;;;;;;;0.56;100.00;96640.53;5024649;28;20079;-50
2021/04/09 05:48:32;;;;;;;21.90;16.50;;;;;;;0.59;100.00;96655.09;5023843;28;20071;-50
2021/04/09 05:50:59;;;;;;;21.90;16.25;;;;;;;1.05;100.00;96652.69;5014258;28;20081;-50
2021/04/09 05:53:27;;;;;;;23.15;15.93;;;;;;;1.05;100.00;96647.50;5036384;28;20076;-48
2021/04/09 05:55:54;;;;;;;23.63;15.25;;;;;;;1.62;100.00;96640.06;5006883;28;20065;-48
2021/04/09 05:58:21;;;;;;;22.98;15.93;;;;;;;1.86;100.00;96637.84;5037585;28;20076;-49
2021/04/09 06:00:49;;;;;;;22.92;16.15;;;;;;;2.10;100.00;96643.41;5015638;28;20069;-46
2021/04/09 06:03:17;;;;;;;23.30;17.05;;;;;;;2.18;100.00;96641.19;5029300;28;20165;-50
2021/04/09 06:05:45;;;;;;;23.20;15.63;;;;;;;2.41;100.00;96644.22;5006235;28;20095;-48
2021/04/09 06:08:12;;;;;;;23.10;16.13;;;;;;;2.33;100.00;96642.06;5017201;28;20081;-47
2021/04/09 06:10:40;;;;;;;22.42;16.40;;;;;;;2.57;100.00;96637.19;4999630;28;20064;-48
2021/04/09 06:13:07;;;;;;;21.95;15.43;;;;;;;2.66;100.00;96648.81;5042603;28;20072;-49
2021/04/09 06:15:35;;;;;;;24.20;15.73;;;;;;;2.92;100.00;96640.25;5007473;28;20073;-50
2021/04/09 06:18:20;;;;;;;20.40;15.82;;;;;;;3.05;100.00;96629.94;5033800;28;20077;-49
2021/04/09 06:20:49;;;;;;;25.00;16.10;;;;;;;3.16;100.00;96631.88;5014889;28;20092;-51
2021/04/09 06:23:16;;;;;;;20.92;16.33;;;;;;;3.14;100.00;96637.19;5023073;28;20085;-47
2021/04/09 06:25:46;;;;;;;19.35;14.68;;;;;;;3.33;100.00;96637.72;5014880;28;20096;-48
2021/04/09 06:28:14;;;;;;;17.48;12.93;;;;;;;3.52;100.00;96632.19;5034218;28;20532;-46
2021/04/09 06:30:41;;;;;;;18.15;13.18;;;;;;;3.78;100.00;96632.28;5022682;28;20065;-48
2021/04/09 06:33:09;;;;;;;14.48;9.68;;;;;;;3.39;100.00;96628.69;5032292;28;20509;-47
2021/04/09 06:35:36;;;;;;;14.73;10.00;;;;;;;3.96;100.00;96625.91;5033811;28;20551;-52
2021/04/09 06:38:05;;;;;;;13.52;9.30;;;;;;;4.09;100.00;96623.31;5007437;28;20065;-46
2021/04/09 06:40:33;;;;;;;11.05;8.50;;;;;;;4.45;100.00;96627.88;5032046;28;20087;-47
2021/04/09 06:43:00;;;;;;;8.93;7.63;;;;;;;4.10;100.00;96617.19;5004657;28;20093;-47
2021/04/09 06:45:28;;;;;;;11.88;7.40;;;;;;;3.87;100.00;96612.63;5035367;28;20072;-45
2021/04/09 06:47:57;;;;;;;8.75;7.20;;;;;;;4.06;100.00;96613.09;5014765;28;20543;-47
2021/04/09 06:50:26;;;;;;;9.38;7.15;;;;;;;3.88;100.00;96612.50;5027261;28;20532;-46
2021/04/09 06:52:56;;;;;;;11.57;6.85;;;;;;;4.09;100.00;96610.25;5013898;28;20061;-50
2021/04/09 06:55:25;;;;;;;10.82;7.07;;;;;;;4.22;100.00;96611.13;5033726;28;20076;-47
2021/04/09 06:57:53;;;;;;;10.02;6.97;;;;;;;4.72;100.00;96611.28;5009848;28;20435;-47
2021/04/09 07:00:24;;;;;;;9.55;7.25;;;;;;;5.34;100.00;96602.63;5041490;28;20492;-51
2021/04/09 07:02:51;;;;;;;10.75;6.10;;;;;;;5.64;100.00;96589.13;5010659;28;20084;-47
2021/04/09 07:05:20;;;;;;;8.02;5.00;;;;;;;5.54;100.00;96590.72;5034808;28;20461;-52
2021/04/09 07:07:47;;;;;;;7.00;4.85;;;;;;;6.11;94.53;96595.31;5017875;28;20076;-54
2021/04/09 07:10:15;;;;;;;6.95;4.30;;;;;;;5.65;89.74;96593.41;5018578;28;20064;-48
2021/04/09 07:12:45;;;;;;;5.80;4.35;;;;;;;6.38;88.26;96593.25;5016871;28;20065;-48
2021/04/09 07:15:16;;;;;;;9.27;4.27;;;;;;;6.01;87.54;96592.53;5028155;28;20068;-48
2021/04/09 07:17:48;;;;;;;6.95;3.83;;;;;;;6.41;83.02;96592.19;5005024;28;20092;-45
2021/04/09 07:20:18;;;;;;;5.55;3.97;;;;;;;6.50;84.99;96594.09;5034431;28;20091;-49
2021/04/09 07:23:06;;;;;;;5.38;3.78;;;;;;;6.37;84.29;96591.59;5015835;28;20115;-47
2021/04/09 07:25:35;;;;;;;6.32;3.63;;;;;;;6.74;78.33;96582.69;5023061;28;20072;-48
2021/04/09 07:28:12;;;;;;;5.00;3.60;;;;;;;6.79;72.48;96584.03;5016874;28;20069;-49
2021/04/09 07:30:41;;;;;;;4.22;3.50;;;;;;;6.66;76.43;96585.91;5034382;28;20065;-50
2021/04/09 07:33:10;;;;;;;8.30;3.42;;;;;;;6.93;68.38;96580.34;5017998;28;20061;-52
2021/04/09 07:35:48;;;;;;;5.18;3.80;;;;;;;7.03;68.55;96568.19;5025346;28;20108;-50
2021/04/09 07:38:21;;;;;;;6.70;3.35;;;;;;;7.23;70.35;96571.88;5033183;28;20127;-48
2021/04/09 07:40:56;;;;;;;5.10;3.72;;;;;;;7.26;65.60;96568.16;5020433;28;20079;-52
2021/04/09 07:43:28;;;;;;;7.65;3.75;;;;;;;7.78;66.30;96585.00;5030951;28;20155;-49
2021/04/09 07:45:57;;;;;;;4.85;3.50;;;;;;;7.81;64.11;96574.22;5027684;28;20080;-47
2021/04/09 07:48:32;;;;;;;4.82;3.40;;;;;;;7.96;64.29;96572.16;5022289;28;20113;-47
2021/04/09 07:50:59;;;;;;;6.57;3.28;;;;;;;8.45;61.48;96568.94;5008096;28;20077;-47
2021/04/09 07:53:44;;;;;;;4.50;3.33;;;;;;;8.22;60.96;96562.94;5038064;28;20689;-48
2021/04/09 07:56:13;;;;;;;8.30;3.55;;;;;;;8.63;59.81;96563.91;5000630;28;20141;-51
2021/04/09 07:58:43;;;;;;;7.85;3.70;;;;;;;8.61;60.27;96557.97;5026274;28;20080;-51
2021/04/09 08:01:20;;;;;;;8.63;3.30;;;;;;;8.49;58.64;96559.00;5013922;28;20072;-47
2021/04/09 08:03:48;;;;;;;5.07;3.60;;;;;;;8.45;58.04;96560.22;5020219;28;20083;-47
2021/04/09 08:06:18;;;;;;;8.05;3.90;;;;;;;8.82;58.50;96551.84;5005848;28;20149;-48
2021/04/09 08:08:58;;;;;;;9.15;3.42;;;;;;;8.66;58.88;96547.88;5027400;28;20538;-47
2021/04/09 08:11:28;;;;;;;6.82;3.13;;;;;;;9.35;56.99;96544.56;5009840;28;20069;-51
2021/04/09 08:14:08;;;;;;;5.88;3.30;;;;;;;9.23;56.05;96537.75;5031288;28;20061;-50
2021/04/09 08:16:37;;;;;;;7.93;3.55;;;;;;;9.62;52.99;96543.91;5018676;28;20073;-51
2021/04/09 08:19:08;;;;;;;4.38;3.10;;;;;;;10.03;53.05;96543.81;5021158;28;20064;-48
2021/04/09 08:21:38;;;;;;;4.65;3.13;;;;;;;9.56;54.26;96547.09;5006921;28;20061;-52
2021/04/09 08:24:06;;;;;;;6.03;3.33;;;;;;;9.88;51.19;96544.22;5040185;28;20068;-50
2021/04/09 08:26:34;;;;;;;7.35;3.22;;;;;;;9.85;52.07;96547.13;5006084;28;20073;-47
2021/04/09 08:29:04;;;;;;;5.50;3.40;;;;;;;10.44;51.76;96548.78;5030411;28;20066;-46
2021/04/09 08:31:32;;;;;;;5.43;3.17;;;;;;;10.47;50.95;96552.13;5008933;28;20054;-47
2021/04/09 08:33:59;;;;;;;5.30;3.30;;;;;;;10.86;50.63;96542.28;5030804;28;20065;-50
2021/04/09 08:36:28;;;;;;;8.82;3.72;;;;;;;10.59;51.17;96549.16;5016731;28;20212;-48
2021/04/09 08:38:56;;;;;;;4.63;3.35;;;;;;;10.98;50.19;96541.16;5043164;28;20440;-49
2021/04/09 08:41:24;;;;;;;9.10;3.50;;;;;;;11.04;49.87;96540.53;5012358;28;20137;-50
2021/04/09 08:43:51;;;;;;;10.45;3.53;;;;;;;11.16;47.81;96533.28;5039423;28;20467;-49
2021/04/09 08:46:19;;;;;;;8.20;4.03;;;;;;;11.83;49.40;96531.19;5012962;28;26304;-50
2021/04/09 08:48:48;;;;;;;9.63;3.88;;;;;;;11.80;46.37;96532.34;5032211;28;20065;-47
2021/04/09 08:51:21;;;;;;;14.98;7.78;;;;;;;11.84;45.88;96530.28;5021138;28;20126;-48
2021/04/09 08:53:48;;;;;;;17.00;8.73;;;;;;;11.97;47.35;96528.06;5027846;28;20627;-48
2021/04/09 08:56:32;;;;;;;7.43;3.60;;;;;;;11.90;45.83;96526.16;5032751;28;20536;-55
2021/04/09 08:58:59;;;;;;;56.28;44.35;;;;;;;12.21;44.75;96529.25;5031197;28;20066;-48
2021/04/09 09:01:28;;;;;;;6.20;3.67;;;;;;;12.34;45.04;96524.41;5020854;28;20546;-48
2021/04/09 09:04:33;;;;;;;7.13;4.32;;;;;;;12.64;44.27;96524.94;5006490;28;20073;-51
2021/04/09 09:07:02;;;;;;;8.63;3.58;;;;;;;12.81;43.43;96524.06;5010406;28;20080;-47
2021/04/09 09:09:30;;;;;;;10.43;3.60;;;;;;;12.45;42.45;96521.50;5033939;28;20468;-48
2021/04/09 09:12:00;;;;;;;8.98;3.22;;;;;;;13.10;41.65;96517.56;5020658;28;20073;-48
2021/04/09 09:14:44;;;;;;;6.68;3.33;;;;;;;13.66;41.36;96511.69;5039766;28;20081;-48
2021/04/09 09:17:41;;;;;;;9.30;3.40;;;;;;;14.02;40.33;96506.09;5016577;28;21480;-48
2021/04/09 09:20:16;;;;;;;6.55;3.53;;;;;;;13.72;40.28;96505.69;5018716;28;20473;-51
2021/04/09 09:22:49;;;;;;;6.57;3.15;;;;;;;13.78;39.94;96510.34;5006539;28;20773;-53
2021/04/09 09:25:31;;;;;;;6.20;3.10;;;;;;;14.00;38.35;96510.72;5035673;28;20083;-48
2021/04/09 09:27:58;;;;;;;5.75;3.90;;;;;;;14.12;36.07;96505.94;5008271;28;22500;-52
2021/04/09 09:30:32;;;;;;;4.47;3.35;;;;;;;14.20;38.89;96505.91;5036700;28;20081;-48
2021/04/09 09:33:28;;;;;;;4.25;2.78;;;;;;;13.61;33.16;96495.41;5012153;28;20087;-48
2021/04/09 09:36:00;;;;;;;5.68;3.22;;;;;;;14.02;31.74;96484.88;5015655;28;20086;-48
2021/04/09 09:38:47;;;;;;;5.28;3.00;;;;;;;14.00;35.84;96487.69;5019755;28;20080;-50
2021/04/09 09:41:34;;;;;;;4.53;3.42;;;;;;;14.42;36.39;96488.50;5026719;28;20708;-53
2021/04/09 09:44:03;;;;;;;7.45;3.08;;;;;;;14.31;32.06;96473.75;5006599;28;20527;-51
2021/04/09 09:46:50;;;;;;;5.03;3.17;;;;;;;14.65;36.25;96472.72;5033102;28;20065;-48
2021/04/09 09:49:19;;;;;;;5.07;2.85;;;;;;;14.45;34.48;96469.56;5017775;28;20457;-47
2021/04/09 09:51:48;;;;;;;6.90;3.00;;;;;;;14.91;32.73;96453.91;5028414;28;20080;-48
2021/04/09 09:54:35;;;;;;;6.55;3.15;;;;;;;15.15;32.59;96451.16;5018184;28;20061;-48
2021/04/09 09:57:37;;;;;;;6.18;2.83;;;;;;;15.76;31.81;96445.16;5035634;28;20136;-48
2021/04/09 10:00:06;;;;;;;5.20;3.00;;;;;;;15.83;31.68;96444.31;5015856;28;20065;-51
2021/04/09 10:02:33;;;;;;;5.13;2.75;;;;;;;16.56;28.52;96441.97;5031554;28;20081;-48
2021/04/09 10:05:01;;;;;;;5.55;2.80;;;;;;;16.22;29.30;96437.16;5017666;28;20133;-53
2021/04/09 10:07:29;;;;;;;6.68;3.03;;;;;;;16.17;30.09;96448.31;5025317;28;20598;-53
2021/04/09 10:09:57;;;;;;;3.60;2.75;;;;;;;16.38;29.95;96442.34;5006848;28;20073;-49
2021/04/09 10:12:24;;;;;;;4.55;2.90;;;;;;;16.29;31.11;96438.91;5035953;28;20065;-55
2021/04/09 10:14:52;;;;;;;4.00;2.75;;;;;;;16.46;33.97;96430.78;5006587;28;20085;-48
2021/04/09 10:17:20;;;;;;;4.50;2.80;;;;;;;16.01;31.48;96422.72;5036089;28;20085;-54
2021/04/09 10:19:58;;;;;;;4.45;2.50;;;;;;;16.00;30.69;96415.75;5011677;28;20065;-51
2021/04/09 10:22:27;;;;;;;3.58;2.80;;;;;;;16.29;29.72;96422.13;5026576;28;20053;-49
2021/04/09 10:24:54;;;;;;;4.68;2.92;;;;;;;15.96;30.17;96418.91;5018272;28;20073;-52
2021/04/09 10:27:25;;;;;;;4.70;2.70;;;;;;;15.46;29.53;96417.63;5033676;28;20065;-47
2021/04/09 10:29:52;;;;;;;3.63;2.90;;;;;;;15.90;28.28;96423.97;5028282;28;20100;-49
2021/04/09 10:32:21;;;;;;;3.75;2.67;;;;;;;16.68;28.60;96403.22;5015512;28;20292;-50
2021/04/09 10:34:49;;;;;;;5.88;2.78;;;;;;;16.95;28.47;96399.09;5030396;28;20069;-50
2021/04/09 10:37:21;;;;;;;3.25;2.60;;;;;;;16.48;28.06;96396.81;5007398;28;20542;-52
2021/04/09 10:39:51;;;;;;;3.70;2.33;;;;;;;16.55;29.13;96403.88;5038292;28;20060;-55
2021/04/09 10:42:19;;;;;;;4.50;2.60;;;;;;;16.26;31.74;96395.88;5017305;28;20472;-48
2021/04/09 10:44:47;;;;;;;4.38;2.55;;;;;;;15.84;26.97;96387.44;5021902;28;20076;-51
2021/04/09 10:47:15;;;;;;;3.65;2.65;;;;;;;16.81;26.60;96384.78;5037420;28;20570;-49
2021/04/09 10:49:43;;;;;;;5.35;2.75;;;;;;;17.02;26.61;96377.88;5022590;28;20071;-52
2021/04/09 10:52:12;;;;;;;3.97;2.17;;;;;;;17.13;30.50;96369.38;5033094;28;20104;-51
2021/04/09 10:54:41;;;;;;;3.08;2.10;;;;;;;17.67;29.15;96368.94;5037056;28;20103;-55
2021/04/09 10:57:13;;;;;;;3.55;2.35;;;;;;;17.78;28.68;96363.09;5018213;28;20303;-46
2021/04/09 10:59:41;;;;;;;2.22;1.95;;;;;;;17.55;27.55;96363.28;5018363;28;20080;-49
2021/04/09 11:02:10;;;;;;;4.00;2.13;;;;;;;18.28;23.07;96352.41;5042127;28;20064;-48
2021/04/09 11:04:39;;;;;;;3.83;2.45;;;;;;;18.08;24.86;96362.13;5022192;28;20075;-49
2021/04/09 11:07:10;;;;;;;3.43;2.40;;;;;;;18.86;25.07;96352.97;5035564;28;20073;-51
2021/04/09 11:09:57;;;;;;;3.90;2.40;;;;;;;18.89;27.05;96347.22;5023796;28;20111;-50
2021/04/09 11:12:27;;;;;;;3.85;2.22;;;;;;;18.25;25.84;96347.47;5028504;28;20727;-51
2021/04/09 11:15:05;;;;;;;2.95;2.38;;;;;;;18.13;26.92;96347.16;5030822;28;20517;-49
2021/04/09 11:17:33;;;;;;;4.38;2.35;;;;;;;18.08;24.13;96336.25;5034472;28;20077;-50
2021/04/09 11:20:19;;;;;;;4.57;2.60;;;;;;;18.02;25.33;96348.53;5028063;28;20060;-49
2021/04/09 11:22:47;;;;;;;3.72;2.20;;;;;;;17.10;25.76;96343.13;5018613;28;20465;-51
2021/04/09 11:25:15;;;;;;;4.95;2.45;;;;;;;17.05;25.38;96343.69;5028574;28;20057;-49
2021/04/09 11:27:44;;;;;;;3.33;2.47;;;;;;;17.89;25.18;96331.59;5030057;28;20479;-55
2021/04/09 11:30:16;;;;;;;4.47;2.45;;;;;;;17.80;24.40;96333.59;5015404;28;20180;-57
2021/04/09 11:32:47;;;;;;;4.05;2.40;;;;;;;18.05;25.70;96312.63;5031891;28;20057;-48
2021/04/09 11:35:16;;;;;;;2.72;2.17;;;;;;;18.37;24.92;96326.38;5023022;28;20064;-50